APRS [IN73EK], 0 Stunde(n), DL3EL [07:47:41, 0s].
ED1ZAS 43.27.52N 005.40.17WIN73DL 4.315km 303°WNW05:30:15ZRD985 438.2250/430.6250 CC1
ED1ZAE 43.27.99N 005.40.54WIN73DL 5.218km 308°NW05:38:31Z2m Voice 145.5875 -0.600 Mhz(3ED1ZAE-C)
WIDE3-3 ESAS3-3 IN73DL WWW.EA1URG.ORG(2ED1ZAE-3)
EB1GEM 43.30.00N 005.36.07WIN73EM 7.228km 15°NNE05:42:00ZWX3in1Plus2.0 U=13.3V,T=??.?C/??.?F(3EB1GEM-3)
EA1FLQ 43.22.00N 005.36.35WIN73EI 8.023km 169°S05:31:36ZMMDVM DVMega 439.9750/439.9750 CC1
EA1EDI 43.30.54N 005.40.31WIN73DM 8.818km 335°NNW05:45:03ZIN73DM Gijón Asturias QAP/RU726 p.Cima
EA1DZR 43.31.47N 005.40.00WIN73DM 10.244km 341°NNW05:31:50ZMMDVM DVMega 431.1000/431.1000 CC1
EA1FFA 43.31.53N 005.40.64WIN73DM 10.673km 337°NNW05:30:40ZMMDVM MMDVM HS Hat 438.8000/438.8000 CC1
EA1IEJ 43.31.81N 005.40.64WIN73DM 11.151km 338°NNW05:31:15ZMMDVM MMDVM HS Hat 438.8500/438.8500 CC6
EB1TK 43.32.22N 005.42.32WIN73DM 12.836km 330°NNW05:45:16ZWind 295°/003kn, Böen bis 006kn, Temp 18.89c, Regen 5.1mm, letzte 24h 14.7mm, seit 0h 14.7mm, Baro 1018.9h, Hum: 95%(3EB1TK-13)
LEEL 43.32.98N 005.41.71WIN73DN 13.700km 336°NNW05:30:04ZHelipuerto de El Musel: LEAS 040522Z 28010KT 2000 1000W RA SCT002 BKN010 BKN018 18/18 Q1016 TEMPO 6000 -RA=
EA1ABW 43.24.77N 005.47.77WIN73CJ 14.100km 259°W05:30:51ZMMDVM MMDVM HS Hat 439.8250/439.8250 CC1
EA1JAY 43.29.33N 005.26.78WIN73GL 15.513km 68°ENE05:30:05ZEA1JAY(3EA1JAY-2)
EA1FHR 43.28.72N 005.26.41WIN73GL 15.590km 73°ENE05:30:37ZMMDVM MMDVM HS Hat 439.1500/439.1500 CC1
EA1HWD 43.28.96N 005.26.30WIN73GL 15.879km 71°ENE05:30:44Z144.575FM Local frecuency VHF. 434.2500/434.2500 CC1
LEMR 43.25.83N 005.49.60WIN73CK 16.313km 267°W05:30:04ZAerodromo de la Morgal: LEAS 040522Z 28010KT 2000 1000W RA SCT002 BKN010 BKN018 18/18 Q1016 TEMPO 6000 -RA=
LEGM 43.26.15N 005.49.84WIN73CK 16.604km 269°W05:30:03ZHelipuerto de La Morgal: LEAS 040522Z 28010KT 2000 1000W RA SCT002 BKN010 BKN018 18/18 Q1016 TEMPO 6000 -RA=
LEHU 43.22.63N 005.49.57WIN73CJ 17.591km 248°WSW05:30:03ZHelipuerto del HUCA: LEAS 040522Z 28010KT 2000 1000W RA SCT002 BKN010 BKN018 18/18 Q1016 TEMPO 6000 -RA=
33D00 43.21.63N 005.51.13WIN73BI 20.249km 245°WSW04:58:58Z33-D-00 Protección Civil REMER / Delegación del Gobierno en Asturias
EA1YR 43.22.09N 005.51.86WIN73BI 20.818km 248°WSW05:32:20ZMMDVM DVS 434.3500/434.3500 CC1
EA1L 43.20.38N 005.51.13WIN73BI 21.337km 239°WSW05:39:16ZWind 342°/000kn, Böen bis 000kn, Temp 22.22c, Regen 0.0mm, letzte 24h 4.8mm, seit 0h 4.8mm, Baro 1014.2h, Hum: 0%(3EA1L-13)
ea1l@ure.es V=13.8V,T=??.?C(2EA1L)
ED1ZAU 43.23.04N 005.52.75WIN73BJ 21.385km 254°WSW05:30:16ZRD625 438.5000/430.9000 CC1
EA1HWX 43.19.87N 005.50.85WIN73BH 21.506km 237°WSW05:31:08ZMMDVM MMDVM HS Dual Hat 430.0000/440.0000 CC1
EA1HJA 43.21.47N 005.52.09WIN73BI 21.553km 246°WSW05:33:39Z IN73FL WX3IN1+ 2.0 - V=13.3V,TX TEMP=31.6C(3EA1HJA-2)
IN73FL WX3IN1+ 2.0 - V=13.9V,TX TEMP=45.5C(2EA1HJA)
EA1IMW 43.14.36N 005.46.93WIN73CF 25.434km 210°SSW05:31:57ZGRUPO RADIO GALENA (GRG) 433.4500/433.4500 CC1
EA1AHA 43.32.72N 005.54.38WIN73BN 25.672km 298°WNW05:41:13ZWind 315°/004kn, Böen bis 006kn, Temp 19.44c, Regen 1.8mm, letzte 24h 8.1mm, seit 0h 8.1mm, Baro 1017.5h, Hum: 88%(3EA1AHA-13)
ED1ZAY 43.29.47N 005.56.54WIN73AL 26.310km 283°WNW05:30:14ZRD625 438.3000/430.7000 CC1
EB1DGC 43.12.60N 005.45.59WIN73CF 27.549km 203°SSW05:30:31ZMMDVM MMDVM HS Hat 433.4500/433.4500 CC1
EA1IZV 43.33.25N 005.55.92WIN73AN 27.963km 298°WNW05:15:02ZEn proceso...
EA1JBU 43.30.80N 005.16.20WIN73IM 29.843km 73°ENE05:30:36ZEA1JBU(3EA1JBU-2)
EA1JBE 43.30.90N 005.16.15WIN73IM 29.973km 73°ENE05:45:03ZEA1JBU(3EA1JBE-13)
MAIN QTH http://qrz.com/db/ea1jbe(2EA1JBE-1)
EA1DHE 43.33.98N 005.58.57WIN73AN 31.744km 297°WNW05:32:11ZMMDVM DVS 434.3500/434.3500 CC1
ED1ZAD 43.07.90N 005.38.52WIN73ED 34.012km 182°S05:37:00ZED1ZAD-3 APRS Digi/Igate(3ED1ZAD-3)
EA1RCG 43.09.45N 005.49.78WIN73CD 35.251km 208°SSW05:30:29ZGRUPO RADIO GALENA (GRG) 433.4500/433.4500 CC1
ED1ZBF 43.19.16N 005.06.74WIN73KH 43.442km 107°ESE05:30:11ZRD625 438.4750/430.8750 CC1

aprs.pl 5.0.011w DL3EL © 2006-2021 [626478]